sensor_id;sensor_type;location;lat;lon;timestamp;P1;durP1;ratioP1;P2;durP2;ratioP2
19026;SDS011;9646;52.034;5.554;2023-06-14T00:00:48;3.63;;;2.10;;
19026;SDS011;9646;52.034;5.554;2023-06-14T00:03:19;3.70;;;2.20;;
19026;SDS011;9646;52.034;5.554;2023-06-14T00:05:47;3.30;;;2.00;;
19026;SDS011;9646;52.034;5.554;2023-06-14T00:08:14;4.53;;;2.60;;
19026;SDS011;9646;52.034;5.554;2023-06-14T00:10:41;7.88;;;2.47;;
19026;SDS011;9646;52.034;5.554;2023-06-14T00:13:08;4.20;;;2.15;;
19026;SDS011;9646;52.034;5.554;2023-06-14T00:15:35;5.80;;;2.10;;
19026;SDS011;9646;52.034;5.554;2023-06-14T00:18:03;5.05;;;2.22;;
19026;SDS011;9646;52.034;5.554;2023-06-14T00:20:32;4.82;;;2.45;;
19026;SDS011;9646;52.034;5.554;2023-06-14T00:22:59;3.65;;;2.47;;
19026;SDS011;9646;52.034;5.554;2023-06-14T00:25:27;2.90;;;2.30;;
19026;SDS011;9646;52.034;5.554;2023-06-14T00:27:54;3.40;;;2.35;;
19026;SDS011;9646;52.034;5.554;2023-06-14T00:30:21;4.75;;;2.45;;
19026;SDS011;9646;52.034;5.554;2023-06-14T00:32:49;4.68;;;2.30;;
19026;SDS011;9646;52.034;5.554;2023-06-14T00:35:16;6.68;;;2.53;;
19026;SDS011;9646;52.034;5.554;2023-06-14T00:37:44;4.85;;;2.15;;
19026;SDS011;9646;52.034;5.554;2023-06-14T00:40:11;6.07;;;2.40;;
19026;SDS011;9646;52.034;5.554;2023-06-14T00:42:39;4.05;;;1.90;;
19026;SDS011;9646;52.034;5.554;2023-06-14T00:45:06;3.50;;;2.25;;
19026;SDS011;9646;52.034;5.554;2023-06-14T00:47:34;4.07;;;2.63;;
19026;SDS011;9646;52.034;5.554;2023-06-14T00:50:02;4.32;;;2.72;;
19026;SDS011;9646;52.034;5.554;2023-06-14T00:52:29;3.78;;;2.08;;
19026;SDS011;9646;52.034;5.554;2023-06-14T00:54:59;4.32;;;2.97;;
19026;SDS011;9646;52.034;5.554;2023-06-14T00:57:26;3.50;;;2.30;;
19026;SDS011;9646;52.034;5.554;2023-06-14T00:59:54;4.18;;;2.50;;
19026;SDS011;9646;52.034;5.554;2023-06-14T01:02:21;4.25;;;2.45;;
19026;SDS011;9646;52.034;5.554;2023-06-14T01:04:49;4.30;;;2.40;;
19026;SDS011;9646;52.034;5.554;2023-06-14T01:07:18;3.70;;;2.45;;
19026;SDS011;9646;52.034;5.554;2023-06-14T01:09:52;4.90;;;2.25;;
19026;SDS011;9646;52.034;5.554;2023-06-14T01:12:24;5.47;;;2.72;;
19026;SDS011;9646;52.034;5.554;2023-06-14T01:14:57;4.00;;;2.88;;
19026;SDS011;9646;52.034;5.554;2023-06-14T01:17:26;5.10;;;2.45;;
19026;SDS011;9646;52.034;5.554;2023-06-14T01:19:56;7.72;;;2.47;;
19026;SDS011;9646;52.034;5.554;2023-06-14T01:22:25;3.72;;;2.50;;
19026;SDS011;9646;52.034;5.554;2023-06-14T01:24:53;7.40;;;2.88;;
19026;SDS011;9646;52.034;5.554;2023-06-14T01:27:22;5.80;;;2.60;;
19026;SDS011;9646;52.034;5.554;2023-06-14T01:29:50;6.72;;;2.58;;
19026;SDS011;9646;52.034;5.554;2023-06-14T01:32:21;6.18;;;2.83;;
19026;SDS011;9646;52.034;5.554;2023-06-14T01:34:48;5.15;;;2.38;;
19026;SDS011;9646;52.034;5.554;2023-06-14T01:37:15;5.80;;;2.42;;
19026;SDS011;9646;52.034;5.554;2023-06-14T01:39:43;4.10;;;2.60;;
19026;SDS011;9646;52.034;5.554;2023-06-14T01:42:13;4.10;;;2.63;;
19026;SDS011;9646;52.034;5.554;2023-06-14T01:44:40;6.18;;;2.42;;
19026;SDS011;9646;52.034;5.554;2023-06-14T01:47:08;4.65;;;2.60;;
19026;SDS011;9646;52.034;5.554;2023-06-14T01:49:35;4.57;;;2.58;;
19026;SDS011;9646;52.034;5.554;2023-06-14T01:52:03;4.63;;;2.20;;
19026;SDS011;9646;52.034;5.554;2023-06-14T01:54:31;7.30;;;2.92;;
19026;SDS011;9646;52.034;5.554;2023-06-14T01:56:58;5.10;;;2.75;;
19026;SDS011;9646;52.034;5.554;2023-06-14T01:59:26;6.45;;;2.60;;
19026;SDS011;9646;52.034;5.554;2023-06-14T02:01:53;6.22;;;2.22;;
19026;SDS011;9646;52.034;5.554;2023-06-14T02:04:20;5.50;;;2.35;;
19026;SDS011;9646;52.034;5.554;2023-06-14T02:06:47;5.05;;;2.85;;
19026;SDS011;9646;52.034;5.554;2023-06-14T02:09:14;5.07;;;2.17;;
19026;SDS011;9646;52.034;5.554;2023-06-14T02:11:42;4.57;;;2.30;;
19026;SDS011;9646;52.034;5.554;2023-06-14T02:14:09;4.40;;;2.83;;
19026;SDS011;9646;52.034;5.554;2023-06-14T02:16:38;5.13;;;2.72;;
19026;SDS011;9646;52.034;5.554;2023-06-14T02:19:05;4.82;;;2.33;;
19026;SDS011;9646;52.034;5.554;2023-06-14T02:21:32;3.33;;;2.40;;
19026;SDS011;9646;52.034;5.554;2023-06-14T02:23:59;6.38;;;2.50;;
19026;SDS011;9646;52.034;5.554;2023-06-14T02:26:26;5.10;;;2.40;;
19026;SDS011;9646;52.034;5.554;2023-06-14T02:28:54;5.95;;;2.17;;
19026;SDS011;9646;52.034;5.554;2023-06-14T02:31:21;4.35;;;2.58;;
19026;SDS011;9646;52.034;5.554;2023-06-14T02:33:49;5.32;;;2.20;;
19026;SDS011;9646;52.034;5.554;2023-06-14T02:36:16;7.40;;;2.33;;
19026;SDS011;9646;52.034;5.554;2023-06-14T02:38:43;3.78;;;2.40;;
19026;SDS011;9646;52.034;5.554;2023-06-14T02:41:11;4.90;;;2.33;;
19026;SDS011;9646;52.034;5.554;2023-06-14T02:43:38;3.85;;;2.40;;
19026;SDS011;9646;52.034;5.554;2023-06-14T02:46:05;6.47;;;2.50;;
19026;SDS011;9646;52.034;5.554;2023-06-14T02:48:33;4.65;;;2.17;;
19026;SDS011;9646;52.034;5.554;2023-06-14T02:51:01;4.07;;;2.47;;
19026;SDS011;9646;52.034;5.554;2023-06-14T02:53:28;6.45;;;2.30;;
19026;SDS011;9646;52.034;5.554;2023-06-14T02:55:55;3.92;;;2.38;;
19026;SDS011;9646;52.034;5.554;2023-06-14T02:58:23;4.60;;;2.58;;
19026;SDS011;9646;52.034;5.554;2023-06-14T03:00:50;3.60;;;2.20;;
19026;SDS011;9646;52.034;5.554;2023-06-14T03:03:18;4.60;;;2.53;;
19026;SDS011;9646;52.034;5.554;2023-06-14T03:05:47;6.43;;;2.50;;
19026;SDS011;9646;52.034;5.554;2023-06-14T03:08:16;5.80;;;2.70;;
19026;SDS011;9646;52.034;5.554;2023-06-14T03:10:44;3.78;;;2.17;;
19026;SDS011;9646;52.034;5.554;2023-06-14T03:13:11;5.65;;;2.35;;
19026;SDS011;9646;52.034;5.554;2023-06-14T03:15:38;4.18;;;2.15;;
19026;SDS011;9646;52.034;5.554;2023-06-14T03:18:07;5.72;;;2.90;;
19026;SDS011;9646;52.034;5.554;2023-06-14T03:20:34;4.57;;;2.33;;
19026;SDS011;9646;52.034;5.554;2023-06-14T03:23:01;3.40;;;2.45;;
19026;SDS011;9646;52.034;5.554;2023-06-14T03:25:31;6.45;;;2.20;;
19026;SDS011;9646;52.034;5.554;2023-06-14T03:28:00;9.40;;;2.60;;
19026;SDS011;9646;52.034;5.554;2023-06-14T03:30:28;6.07;;;2.72;;
19026;SDS011;9646;52.034;5.554;2023-06-14T03:32:55;5.75;;;2.20;;
19026;SDS011;9646;52.034;5.554;2023-06-14T03:35:22;5.65;;;2.42;;
19026;SDS011;9646;52.034;5.554;2023-06-14T03:37:49;5.78;;;2.25;;
19026;SDS011;9646;52.034;5.554;2023-06-14T03:40:17;4.65;;;2.47;;
19026;SDS011;9646;52.034;5.554;2023-06-14T03:42:46;5.78;;;2.58;;
19026;SDS011;9646;52.034;5.554;2023-06-14T03:45:14;2.65;;;2.20;;
19026;SDS011;9646;52.034;5.554;2023-06-14T03:47:41;4.15;;;2.30;;
19026;SDS011;9646;52.034;5.554;2023-06-14T03:50:09;3.53;;;2.30;;
19026;SDS011;9646;52.034;5.554;2023-06-14T03:52:36;4.85;;;2.55;;
19026;SDS011;9646;52.034;5.554;2023-06-14T03:55:03;7.13;;;2.30;;
19026;SDS011;9646;52.034;5.554;2023-06-14T03:57:31;8.35;;;3.10;;
19026;SDS011;9646;52.034;5.554;2023-06-14T03:59:59;5.25;;;2.33;;
19026;SDS011;9646;52.034;5.554;2023-06-14T04:02:26;5.30;;;2.60;;
19026;SDS011;9646;52.034;5.554;2023-06-14T04:04:54;5.82;;;2.70;;
19026;SDS011;9646;52.034;5.554;2023-06-14T04:07:21;6.07;;;2.40;;
19026;SDS011;9646;52.034;5.554;2023-06-14T04:09:50;6.20;;;2.25;;
19026;SDS011;9646;52.034;5.554;2023-06-14T04:12:17;2.80;;;2.17;;
19026;SDS011;9646;52.034;5.554;2023-06-14T04:14:44;3.03;;;2.10;;
19026;SDS011;9646;52.034;5.554;2023-06-14T04:17:12;6.43;;;2.60;;
19026;SDS011;9646;52.034;5.554;2023-06-14T04:19:39;6.50;;;2.50;;
19026;SDS011;9646;52.034;5.554;2023-06-14T04:22:06;5.57;;;2.38;;
19026;SDS011;9646;52.034;5.554;2023-06-14T04:24:35;3.55;;;2.15;;
19026;SDS011;9646;52.034;5.554;2023-06-14T04:27:03;4.45;;;2.10;;
19026;SDS011;9646;52.034;5.554;2023-06-14T04:29:31;2.78;;;2.08;;
19026;SDS011;9646;52.034;5.554;2023-06-14T04:31:58;4.00;;;1.98;;
19026;SDS011;9646;52.034;5.554;2023-06-14T04:34:28;5.50;;;2.55;;
19026;SDS011;9646;52.034;5.554;2023-06-14T04:36:59;5.57;;;1.98;;
19026;SDS011;9646;52.034;5.554;2023-06-14T04:39:26;2.55;;;2.00;;
19026;SDS011;9646;52.034;5.554;2023-06-14T04:41:53;4.50;;;2.08;;
19026;SDS011;9646;52.034;5.554;2023-06-14T04:44:22;3.08;;;2.10;;
19026;SDS011;9646;52.034;5.554;2023-06-14T04:46:54;3.60;;;1.90;;
19026;SDS011;9646;52.034;5.554;2023-06-14T04:49:21;4.28;;;2.10;;
19026;SDS011;9646;52.034;5.554;2023-06-14T04:51:51;4.32;;;2.10;;
19026;SDS011;9646;52.034;5.554;2023-06-14T04:54:22;2.95;;;1.95;;
19026;SDS011;9646;52.034;5.554;2023-06-14T04:56:50;4.85;;;2.25;;
19026;SDS011;9646;52.034;5.554;2023-06-14T04:59:18;3.83;;;1.67;;
19026;SDS011;9646;52.034;5.554;2023-06-14T05:01:45;5.20;;;2.05;;
19026;SDS011;9646;52.034;5.554;2023-06-14T05:04:13;4.30;;;1.90;;
19026;SDS011;9646;52.034;5.554;2023-06-14T05:06:41;3.83;;;2.05;;
19026;SDS011;9646;52.034;5.554;2023-06-14T05:09:11;4.93;;;2.20;;
19026;SDS011;9646;52.034;5.554;2023-06-14T05:11:38;5.43;;;2.15;;
19026;SDS011;9646;52.034;5.554;2023-06-14T05:14:07;5.72;;;2.05;;
19026;SDS011;9646;52.034;5.554;2023-06-14T05:16:34;3.72;;;2.42;;
19026;SDS011;9646;52.034;5.554;2023-06-14T05:19:01;4.75;;;2.13;;
19026;SDS011;9646;52.034;5.554;2023-06-14T05:21:29;3.40;;;2.03;;
19026;SDS011;9646;52.034;5.554;2023-06-14T05:23:57;2.10;;;1.90;;
19026;SDS011;9646;52.034;5.554;2023-06-14T05:26:25;6.55;;;2.22;;
19026;SDS011;9646;52.034;5.554;2023-06-14T05:28:53;4.78;;;2.08;;
19026;SDS011;9646;52.034;5.554;2023-06-14T05:31:21;4.40;;;2.58;;
19026;SDS011;9646;52.034;5.554;2023-06-14T05:33:48;3.47;;;2.20;;
19026;SDS011;9646;52.034;5.554;2023-06-14T05:36:16;5.65;;;2.33;;
19026;SDS011;9646;52.034;5.554;2023-06-14T05:38:43;3.50;;;2.30;;
19026;SDS011;9646;52.034;5.554;2023-06-14T05:41:10;6.03;;;2.20;;
19026;SDS011;9646;52.034;5.554;2023-06-14T05:43:38;3.95;;;2.47;;
19026;SDS011;9646;52.034;5.554;2023-06-14T05:46:05;5.43;;;2.00;;
19026;SDS011;9646;52.034;5.554;2023-06-14T05:48:32;7.38;;;2.75;;
19026;SDS011;9646;52.034;5.554;2023-06-14T05:50:59;3.67;;;1.88;;
19026;SDS011;9646;52.034;5.554;2023-06-14T05:53:26;4.38;;;2.00;;
19026;SDS011;9646;52.034;5.554;2023-06-14T05:55:53;3.95;;;2.17;;
19026;SDS011;9646;52.034;5.554;2023-06-14T05:58:20;3.35;;;1.95;;
19026;SDS011;9646;52.034;5.554;2023-06-14T06:00:49;6.13;;;2.40;;
19026;SDS011;9646;52.034;5.554;2023-06-14T06:03:18;3.88;;;1.80;;
19026;SDS011;9646;52.034;5.554;2023-06-14T06:05:46;3.50;;;2.38;;
19026;SDS011;9646;52.034;5.554;2023-06-14T06:08:13;4.68;;;2.10;;
19026;SDS011;9646;52.034;5.554;2023-06-14T06:10:41;4.90;;;2.42;;
19026;SDS011;9646;52.034;5.554;2023-06-14T06:13:08;3.72;;;2.00;;
19026;SDS011;9646;52.034;5.554;2023-06-14T06:15:35;3.30;;;2.15;;
19026;SDS011;9646;52.034;5.554;2023-06-14T06:18:04;5.03;;;2.20;;
19026;SDS011;9646;52.034;5.554;2023-06-14T06:20:31;4.05;;;2.00;;
19026;SDS011;9646;52.034;5.554;2023-06-14T06:22:58;8.00;;;2.33;;
19026;SDS011;9646;52.034;5.554;2023-06-14T06:25:26;4.63;;;1.85;;
19026;SDS011;9646;52.034;5.554;2023-06-14T06:27:53;2.28;;;1.60;;
19026;SDS011;9646;52.034;5.554;2023-06-14T06:30:21;6.60;;;2.03;;
19026;SDS011;9646;52.034;5.554;2023-06-14T06:32:48;2.45;;;1.77;;
19026;SDS011;9646;52.034;5.554;2023-06-14T06:35:17;4.82;;;2.53;;
19026;SDS011;9646;52.034;5.554;2023-06-14T06:37:44;6.05;;;2.00;;
19026;SDS011;9646;52.034;5.554;2023-06-14T06:40:11;9.05;;;2.45;;
19026;SDS011;9646;52.034;5.554;2023-06-14T06:42:38;6.95;;;2.50;;
19026;SDS011;9646;52.034;5.554;2023-06-14T06:45:05;2.88;;;2.03;;
19026;SDS011;9646;52.034;5.554;2023-06-14T06:47:32;5.25;;;2.60;;
19026;SDS011;9646;52.034;5.554;2023-06-14T06:50:00;5.93;;;2.67;;
19026;SDS011;9646;52.034;5.554;2023-06-14T06:52:28;5.28;;;2.10;;
19026;SDS011;9646;52.034;5.554;2023-06-14T06:54:55;3.47;;;2.10;;
19026;SDS011;9646;52.034;5.554;2023-06-14T06:57:22;4.30;;;2.20;;
19026;SDS011;9646;52.034;5.554;2023-06-14T06:59:49;2.58;;;2.03;;
19026;SDS011;9646;52.034;5.554;2023-06-14T07:02:17;4.18;;;2.20;;
19026;SDS011;9646;52.034;5.554;2023-06-14T07:04:44;3.25;;;2.40;;
19026;SDS011;9646;52.034;5.554;2023-06-14T07:07:11;3.13;;;1.80;;
19026;SDS011;9646;52.034;5.554;2023-06-14T07:09:40;3.03;;;1.65;;
19026;SDS011;9646;52.034;5.554;2023-06-14T07:12:08;3.38;;;2.25;;
19026;SDS011;9646;52.034;5.554;2023-06-14T07:14:35;3.00;;;2.20;;
19026;SDS011;9646;52.034;5.554;2023-06-14T07:17:02;2.17;;;1.80;;
19026;SDS011;9646;52.034;5.554;2023-06-14T07:19:30;2.63;;;1.90;;
19026;SDS011;9646;52.034;5.554;2023-06-14T07:21:57;4.85;;;2.33;;
19026;SDS011;9646;52.034;5.554;2023-06-14T07:24:24;3.35;;;1.90;;
19026;SDS011;9646;52.034;5.554;2023-06-14T07:26:52;1.75;;;1.45;;
19026;SDS011;9646;52.034;5.554;2023-06-14T07:29:19;2.03;;;1.60;;
19026;SDS011;9646;52.034;5.554;2023-06-14T07:31:46;4.22;;;1.45;;
19026;SDS011;9646;52.034;5.554;2023-06-14T07:34:13;3.33;;;1.45;;
19026;SDS011;9646;52.034;5.554;2023-06-14T07:36:40;3.35;;;1.73;;
19026;SDS011;9646;52.034;5.554;2023-06-14T07:39:09;2.70;;;1.60;;
19026;SDS011;9646;52.034;5.554;2023-06-14T07:41:36;2.75;;;2.00;;
19026;SDS011;9646;52.034;5.554;2023-06-14T07:44:04;6.07;;;2.00;;
19026;SDS011;9646;52.034;5.554;2023-06-14T07:46:31;2.97;;;1.45;;
19026;SDS011;9646;52.034;5.554;2023-06-14T07:48:59;2.22;;;1.70;;
19026;SDS011;9646;52.034;5.554;2023-06-14T07:51:26;2.50;;;1.60;;
19026;SDS011;9646;52.034;5.554;2023-06-14T07:53:53;3.72;;;1.90;;
19026;SDS011;9646;52.034;5.554;2023-06-14T07:56:21;5.43;;;1.95;;
19026;SDS011;9646;52.034;5.554;2023-06-14T07:58:48;2.38;;;1.80;;
19026;SDS011;9646;52.034;5.554;2023-06-14T08:01:17;2.42;;;1.63;;
19026;SDS011;9646;52.034;5.554;2023-06-14T08:03:45;2.65;;;1.70;;
19026;SDS011;9646;52.034;5.554;2023-06-14T08:06:12;2.03;;;1.38;;
19026;SDS011;9646;52.034;5.554;2023-06-14T08:08:39;2.25;;;1.85;;
19026;SDS011;9646;52.034;5.554;2023-06-14T08:11:06;1.83;;;1.30;;
19026;SDS011;9646;52.034;5.554;2023-06-14T08:13:33;5.13;;;2.10;;
19026;SDS011;9646;52.034;5.554;2023-06-14T08:16:00;2.38;;;1.50;;
19026;SDS011;9646;52.034;5.554;2023-06-14T08:18:31;6.65;;;1.70;;
19026;SDS011;9646;52.034;5.554;2023-06-14T08:20:58;3.40;;;1.98;;
19026;SDS011;9646;52.034;5.554;2023-06-14T08:23:25;4.97;;;2.55;;
19026;SDS011;9646;52.034;5.554;2023-06-14T08:25:52;5.47;;;2.60;;
19026;SDS011;9646;52.034;5.554;2023-06-14T08:28:20;6.80;;;2.38;;
19026;SDS011;9646;52.034;5.554;2023-06-14T08:30:47;4.70;;;3.22;;
19026;SDS011;9646;52.034;5.554;2023-06-14T08:33:14;7.35;;;2.90;;
19026;SDS011;9646;52.034;5.554;2023-06-14T08:35:43;7.05;;;2.63;;
19026;SDS011;9646;52.034;5.554;2023-06-14T08:38:10;6.95;;;2.80;;
19026;SDS011;9646;52.034;5.554;2023-06-14T08:40:37;3.78;;;1.60;;
19026;SDS011;9646;52.034;5.554;2023-06-14T08:43:04;2.75;;;1.83;;
19026;SDS011;9646;52.034;5.554;2023-06-14T08:45:32;4.85;;;2.00;;
19026;SDS011;9646;52.034;5.554;2023-06-14T08:47:59;2.45;;;1.63;;
19026;SDS011;9646;52.034;5.554;2023-06-14T08:50:27;3.83;;;2.00;;
19026;SDS011;9646;52.034;5.554;2023-06-14T08:52:57;4.88;;;2.00;;
19026;SDS011;9646;52.034;5.554;2023-06-14T08:55:25;4.97;;;2.00;;
19026;SDS011;9646;52.034;5.554;2023-06-14T08:57:54;2.78;;;2.10;;
19026;SDS011;9646;52.034;5.554;2023-06-14T09:00:22;3.17;;;1.88;;
19026;SDS011;9646;52.034;5.554;2023-06-14T09:02:50;4.15;;;2.25;;
19026;SDS011;9646;52.034;5.554;2023-06-14T09:05:20;4.10;;;1.83;;
19026;SDS011;9646;52.034;5.554;2023-06-14T09:07:48;3.30;;;1.90;;
19026;SDS011;9646;52.034;5.554;2023-06-14T09:10:17;3.95;;;2.03;;
19026;SDS011;9646;52.034;5.554;2023-06-14T09:12:44;5.20;;;2.22;;
19026;SDS011;9646;52.034;5.554;2023-06-14T09:15:12;4.30;;;1.77;;
19026;SDS011;9646;52.034;5.554;2023-06-14T09:17:39;5.88;;;2.17;;
19026;SDS011;9646;52.034;5.554;2023-06-14T09:20:07;3.22;;;1.75;;
19026;SDS011;9646;52.034;5.554;2023-06-14T09:22:35;1.90;;;1.63;;
19026;SDS011;9646;52.034;5.554;2023-06-14T09:25:03;3.30;;;1.83;;
19026;SDS011;9646;52.034;5.554;2023-06-14T09:27:32;2.75;;;1.40;;
19026;SDS011;9646;52.034;5.554;2023-06-14T09:30:00;2.67;;;1.50;;
19026;SDS011;9646;52.034;5.554;2023-06-14T09:32:27;2.45;;;1.15;;
19026;SDS011;9646;52.034;5.554;2023-06-14T09:34:55;5.55;;;1.77;;
19026;SDS011;9646;52.034;5.554;2023-06-14T09:37:30;3.67;;;1.40;;
19026;SDS011;9646;52.034;5.554;2023-06-14T09:39:57;1.95;;;1.20;;
19026;SDS011;9646;52.034;5.554;2023-06-14T09:42:25;3.22;;;1.33;;
19026;SDS011;9646;52.034;5.554;2023-06-14T09:44:55;2.38;;;1.70;;
19026;SDS011;9646;52.034;5.554;2023-06-14T09:47:22;1.17;;;1.08;;
19026;SDS011;9646;52.034;5.554;2023-06-14T09:49:50;2.72;;;1.70;;
19026;SDS011;9646;52.034;5.554;2023-06-14T09:52:20;3.63;;;1.65;;
19026;SDS011;9646;52.034;5.554;2023-06-14T09:54:47;2.00;;;1.20;;
19026;SDS011;9646;52.034;5.554;2023-06-14T09:57:16;4.97;;;1.50;;
19026;SDS011;9646;52.034;5.554;2023-06-14T09:59:43;2.25;;;1.50;;
19026;SDS011;9646;52.034;5.554;2023-06-14T10:02:17;2.72;;;1.90;;
19026;SDS011;9646;52.034;5.554;2023-06-14T10:04:46;1.70;;;1.27;;
19026;SDS011;9646;52.034;5.554;2023-06-14T10:07:14;2.20;;;1.30;;
19026;SDS011;9646;52.034;5.554;2023-06-14T10:09:44;1.63;;;1.40;;
19026;SDS011;9646;52.034;5.554;2023-06-14T10:12:14;5.38;;;1.40;;
19026;SDS011;9646;52.034;5.554;2023-06-14T10:14:45;1.92;;;1.20;;
19026;SDS011;9646;52.034;5.554;2023-06-14T10:17:17;3.00;;;1.58;;
19026;SDS011;9646;52.034;5.554;2023-06-14T10:19:48;3.10;;;1.65;;
19026;SDS011;9646;52.034;5.554;2023-06-14T10:22:18;2.65;;;1.17;;
19026;SDS011;9646;52.034;5.554;2023-06-14T10:24:48;2.72;;;1.65;;
19026;SDS011;9646;52.034;5.554;2023-06-14T10:27:15;1.40;;;1.30;;
19026;SDS011;9646;52.034;5.554;2023-06-14T10:32:27;2.20;;;1.67;;
19026;SDS011;9646;52.034;5.554;2023-06-14T10:34:55;2.47;;;1.10;;
19026;SDS011;9646;52.034;5.554;2023-06-14T10:37:23;6.35;;;1.55;;
19026;SDS011;9646;52.034;5.554;2023-06-14T10:39:50;2.47;;;1.70;;
19026;SDS011;9646;52.034;5.554;2023-06-14T10:42:18;2.03;;;1.20;;
19026;SDS011;9646;52.034;5.554;2023-06-14T10:44:49;2.55;;;1.65;;
19026;SDS011;9646;52.034;5.554;2023-06-14T10:47:20;1.55;;;1.25;;
19026;SDS011;9646;52.034;5.554;2023-06-14T10:49:50;2.03;;;1.50;;
19026;SDS011;9646;52.034;5.554;2023-06-14T10:52:20;2.85;;;1.55;;
19026;SDS011;9646;52.034;5.554;2023-06-14T10:55:00;5.32;;;1.48;;
19026;SDS011;9646;52.034;5.554;2023-06-14T10:57:29;3.88;;;1.48;;
19026;SDS011;9646;52.034;5.554;2023-06-14T10:59:57;3.58;;;1.45;;
19026;SDS011;9646;52.034;5.554;2023-06-14T11:02:36;5.60;;;1.45;;
19026;SDS011;9646;52.034;5.554;2023-06-14T11:05:13;2.78;;;1.30;;
19026;SDS011;9646;52.034;5.554;2023-06-14T11:07:43;2.40;;;1.50;;
19026;SDS011;9646;52.034;5.554;2023-06-14T11:10:17;4.50;;;1.55;;
19026;SDS011;9646;52.034;5.554;2023-06-14T11:12:49;1.30;;;1.20;;
19026;SDS011;9646;52.034;5.554;2023-06-14T11:15:16;2.40;;;1.30;;
19026;SDS011;9646;52.034;5.554;2023-06-14T11:17:49;2.55;;;1.30;;
19026;SDS011;9646;52.034;5.554;2023-06-14T11:20:19;3.97;;;1.30;;
19026;SDS011;9646;52.034;5.554;2023-06-14T11:22:47;6.75;;;1.70;;
19026;SDS011;9646;52.034;5.554;2023-06-14T11:25:14;2.30;;;1.13;;
19026;SDS011;9646;52.034;5.554;2023-06-14T11:27:41;2.13;;;1.40;;
19026;SDS011;9646;52.034;5.554;2023-06-14T11:30:09;2.28;;;1.45;;
19026;SDS011;9646;52.034;5.554;2023-06-14T11:32:36;2.83;;;1.17;;
19026;SDS011;9646;52.034;5.554;2023-06-14T11:35:03;4.43;;;2.00;;
19026;SDS011;9646;52.034;5.554;2023-06-14T11:37:32;3.35;;;2.03;;
19026;SDS011;9646;52.034;5.554;2023-06-14T11:39:59;5.03;;;2.40;;
19026;SDS011;9646;52.034;5.554;2023-06-14T11:42:28;4.78;;;1.60;;
19026;SDS011;9646;52.034;5.554;2023-06-14T11:44:56;4.28;;;1.98;;
19026;SDS011;9646;52.034;5.554;2023-06-14T11:47:23;3.72;;;1.83;;
19026;SDS011;9646;52.034;5.554;2023-06-14T11:49:50;3.70;;;1.88;;
19026;SDS011;9646;52.034;5.554;2023-06-14T11:52:17;5.45;;;2.00;;
19026;SDS011;9646;52.034;5.554;2023-06-14T11:54:46;3.00;;;1.73;;
19026;SDS011;9646;52.034;5.554;2023-06-14T11:57:14;4.18;;;1.70;;
19026;SDS011;9646;52.034;5.554;2023-06-14T11:59:41;3.75;;;1.77;;
19026;SDS011;9646;52.034;5.554;2023-06-14T12:02:09;7.80;;;2.05;;
19026;SDS011;9646;52.034;5.554;2023-06-14T12:04:36;2.10;;;1.40;;
19026;SDS011;9646;52.034;5.554;2023-06-14T12:07:09;3.47;;;1.90;;
19026;SDS011;9646;52.034;5.554;2023-06-14T12:09:37;2.33;;;1.67;;
19026;SDS011;9646;52.034;5.554;2023-06-14T12:12:06;6.55;;;2.08;;
19026;SDS011;9646;52.034;5.554;2023-06-14T12:14:34;4.32;;;1.70;;
19026;SDS011;9646;52.034;5.554;2023-06-14T12:17:04;3.28;;;1.70;;
19026;SDS011;9646;52.034;5.554;2023-06-14T12:19:32;2.08;;;1.50;;
19026;SDS011;9646;52.034;5.554;2023-06-14T12:21:59;1.88;;;1.45;;
19026;SDS011;9646;52.034;5.554;2023-06-14T12:24:30;3.50;;;1.70;;
19026;SDS011;9646;52.034;5.554;2023-06-14T12:26:57;2.22;;;1.52;;
19026;SDS011;9646;52.034;5.554;2023-06-14T12:29:26;2.95;;;1.23;;
19026;SDS011;9646;52.034;5.554;2023-06-14T12:31:53;3.42;;;1.60;;
19026;SDS011;9646;52.034;5.554;2023-06-14T12:34:22;2.55;;;1.50;;
19026;SDS011;9646;52.034;5.554;2023-06-14T12:36:49;2.20;;;1.60;;
19026;SDS011;9646;52.034;5.554;2023-06-14T12:39:16;3.28;;;1.35;;
19026;SDS011;9646;52.034;5.554;2023-06-14T12:41:44;1.73;;;1.15;;
19026;SDS011;9646;52.034;5.554;2023-06-14T12:44:11;1.30;;;1.20;;
19026;SDS011;9646;52.034;5.554;2023-06-14T12:46:39;2.28;;;1.20;;
19026;SDS011;9646;52.034;5.554;2023-06-14T12:49:08;6.55;;;1.70;;
19026;SDS011;9646;52.034;5.554;2023-06-14T12:51:35;3.47;;;1.33;;
19026;SDS011;9646;52.034;5.554;2023-06-14T12:54:02;2.20;;;1.58;;
19026;SDS011;9646;52.034;5.554;2023-06-14T12:56:30;1.67;;;1.30;;
19026;SDS011;9646;52.034;5.554;2023-06-14T12:58:57;2.72;;;1.40;;
19026;SDS011;9646;52.034;5.554;2023-06-14T13:01:24;2.45;;;1.52;;
19026;SDS011;9646;52.034;5.554;2023-06-14T13:03:53;1.63;;;1.17;;
19026;SDS011;9646;52.034;5.554;2023-06-14T13:06:20;2.70;;;1.77;;
19026;SDS011;9646;52.034;5.554;2023-06-14T13:08:48;1.80;;;1.30;;
19026;SDS011;9646;52.034;5.554;2023-06-14T13:11:15;1.65;;;1.38;;
19026;SDS011;9646;52.034;5.554;2023-06-14T13:13:42;2.78;;;1.67;;
19026;SDS011;9646;52.034;5.554;2023-06-14T13:16:09;3.92;;;1.20;;
19026;SDS011;9646;52.034;5.554;2023-06-14T13:18:38;2.75;;;1.20;;
19026;SDS011;9646;52.034;5.554;2023-06-14T13:21:06;1.98;;;1.35;;
19026;SDS011;9646;52.034;5.554;2023-06-14T13:23:33;3.72;;;1.30;;
19026;SDS011;9646;52.034;5.554;2023-06-14T13:26:00;6.43;;;1.50;;
19026;SDS011;9646;52.034;5.554;2023-06-14T13:28:27;1.83;;;1.30;;
19026;SDS011;9646;52.034;5.554;2023-06-14T13:30:56;4.65;;;1.33;;
19026;SDS011;9646;52.034;5.554;2023-06-14T13:33:23;2.58;;;1.30;;
19026;SDS011;9646;52.034;5.554;2023-06-14T13:35:50;4.65;;;1.20;;
19026;SDS011;9646;52.034;5.554;2023-06-14T13:38:19;2.72;;;1.30;;
19026;SDS011;9646;52.034;5.554;2023-06-14T13:40:46;1.88;;;1.40;;
19026;SDS011;9646;52.034;5.554;2023-06-14T13:43:13;2.03;;;1.13;;
19026;SDS011;9646;52.034;5.554;2023-06-14T13:45:40;1.35;;;1.20;;
19026;SDS011;9646;52.034;5.554;2023-06-14T13:48:07;3.92;;;1.20;;
19026;SDS011;9646;52.034;5.554;2023-06-14T13:50:34;1.70;;;0.90;;
19026;SDS011;9646;52.034;5.554;2023-06-14T13:53:01;1.33;;;1.10;;
19026;SDS011;9646;52.034;5.554;2023-06-14T13:55:29;2.17;;;0.95;;
19026;SDS011;9646;52.034;5.554;2023-06-14T13:57:56;2.83;;;1.08;;
19026;SDS011;9646;52.034;5.554;2023-06-14T14:00:24;1.63;;;1.23;;
19026;SDS011;9646;52.034;5.554;2023-06-14T14:02:51;3.30;;;1.10;;
19026;SDS011;9646;52.034;5.554;2023-06-14T14:05:19;1.05;;;0.93;;
19026;SDS011;9646;52.034;5.554;2023-06-14T14:07:51;2.00;;;0.90;;
19026;SDS011;9646;52.034;5.554;2023-06-14T14:10:18;1.52;;;1.10;;
19026;SDS011;9646;52.034;5.554;2023-06-14T14:12:46;3.05;;;1.00;;
19026;SDS011;9646;52.034;5.554;2023-06-14T14:15:13;1.77;;;0.90;;
19026;SDS011;9646;52.034;5.554;2023-06-14T14:17:41;3.58;;;1.05;;
19026;SDS011;9646;52.034;5.554;2023-06-14T14:20:08;2.20;;;1.08;;
19026;SDS011;9646;52.034;5.554;2023-06-14T14:22:37;1.92;;;0.90;;
19026;SDS011;9646;52.034;5.554;2023-06-14T14:25:04;2.58;;;1.00;;
19026;SDS011;9646;52.034;5.554;2023-06-14T14:27:31;1.83;;;0.85;;
19026;SDS011;9646;52.034;5.554;2023-06-14T14:30:00;2.15;;;1.00;;
19026;SDS011;9646;52.034;5.554;2023-06-14T14:32:27;2.33;;;1.02;;
19026;SDS011;9646;52.034;5.554;2023-06-14T14:34:54;1.35;;;0.98;;
19026;SDS011;9646;52.034;5.554;2023-06-14T14:37:21;1.85;;;0.70;;
19026;SDS011;9646;52.034;5.554;2023-06-14T14:39:48;1.73;;;0.95;;
19026;SDS011;9646;52.034;5.554;2023-06-14T14:42:15;1.85;;;0.98;;
19026;SDS011;9646;52.034;5.554;2023-06-14T14:44:43;1.90;;;0.93;;
19026;SDS011;9646;52.034;5.554;2023-06-14T14:47:12;1.02;;;0.85;;
19026;SDS011;9646;52.034;5.554;2023-06-14T14:49:39;1.30;;;0.80;;
19026;SDS011;9646;52.034;5.554;2023-06-14T14:52:07;1.90;;;0.77;;
19026;SDS011;9646;52.034;5.554;2023-06-14T14:54:34;1.20;;;0.90;;
19026;SDS011;9646;52.034;5.554;2023-06-14T14:57:01;1.40;;;0.95;;
19026;SDS011;9646;52.034;5.554;2023-06-14T14:59:28;0.90;;;0.90;;
19026;SDS011;9646;52.034;5.554;2023-06-14T15:01:55;1.02;;;0.80;;
19026;SDS011;9646;52.034;5.554;2023-06-14T15:04:24;2.30;;;0.93;;
19026;SDS011;9646;52.034;5.554;2023-06-14T15:06:51;1.75;;;0.90;;